sensor_id;sensor_type;location;lat;lon;timestamp;temperature;humidity
5711;DHT22;61291;52.524;13.422;2023-06-26T00:01:37;19.00;99.90
5711;DHT22;61291;52.524;13.422;2023-06-26T00:04:05;19.00;99.90
5711;DHT22;61291;52.524;13.422;2023-06-26T00:06:30;19.00;99.90
5711;DHT22;61291;52.524;13.422;2023-06-26T00:08:56;18.90;99.90
5711;DHT22;61291;52.524;13.422;2023-06-26T00:11:24;18.80;99.90
5711;DHT22;61291;52.524;13.422;2023-06-26T00:13:50;18.80;99.90
5711;DHT22;61291;52.524;13.422;2023-06-26T00:16:16;18.80;99.90
5711;DHT22;61291;52.524;13.422;2023-06-26T00:18:41;18.80;99.90
5711;DHT22;61291;52.524;13.422;2023-06-26T00:21:07;18.80;99.90
5711;DHT22;61291;52.524;13.422;2023-06-26T00:23:32;18.80;99.90
5711;DHT22;61291;52.524;13.422;2023-06-26T00:26:03;18.80;99.90
5711;DHT22;61291;52.524;13.422;2023-06-26T00:28:28;18.70;99.90
5711;DHT22;61291;52.524;13.422;2023-06-26T00:30:54;18.80;99.90
5711;DHT22;61291;52.524;13.422;2023-06-26T00:33:19;18.80;99.90
5711;DHT22;61291;52.524;13.422;2023-06-26T00:35:44;19.00;99.90
5711;DHT22;61291;52.524;13.422;2023-06-26T00:38:10;19.00;99.90
5711;DHT22;61291;52.524;13.422;2023-06-26T00:40:35;19.00;99.90
5711;DHT22;61291;52.524;13.422;2023-06-26T00:43:01;19.00;99.90
5711;DHT22;61291;52.524;13.422;2023-06-26T00:45:27;19.00;99.90
5711;DHT22;61291;52.524;13.422;2023-06-26T00:47:53;19.00;99.90
5711;DHT22;61291;52.524;13.422;2023-06-26T00:50:19;19.10;99.90
5711;DHT22;61291;52.524;13.422;2023-06-26T00:52:44;19.10;99.90
5711;DHT22;61291;52.524;13.422;2023-06-26T00:55:10;19.30;99.90
5711;DHT22;61291;52.524;13.422;2023-06-26T00:57:36;19.30;99.90
5711;DHT22;61291;52.524;13.422;2023-06-26T01:00:02;19.30;99.90
5711;DHT22;61291;52.524;13.422;2023-06-26T01:02:29;19.40;99.90
5711;DHT22;61291;52.524;13.422;2023-06-26T01:04:59;19.40;99.90
5711;DHT22;61291;52.524;13.422;2023-06-26T01:07:25;19.50;99.90
5711;DHT22;61291;52.524;13.422;2023-06-26T01:09:50;19.50;99.90
5711;DHT22;61291;52.524;13.422;2023-06-26T01:12:16;19.60;99.90
5711;DHT22;61291;52.524;13.422;2023-06-26T01:14:42;19.60;99.90
5711;DHT22;61291;52.524;13.422;2023-06-26T01:17:07;19.70;99.90
5711;DHT22;61291;52.524;13.422;2023-06-26T01:19:37;19.70;99.90
5711;DHT22;61291;52.524;13.422;2023-06-26T01:22:17;19.70;99.90
5711;DHT22;61291;52.524;13.422;2023-06-26T01:25:21;19.70;99.90
5711;DHT22;61291;52.524;13.422;2023-06-26T01:27:52;19.70;99.90
5711;DHT22;61291;52.524;13.422;2023-06-26T01:30:18;19.80;99.90
5711;DHT22;61291;52.524;13.422;2023-06-26T01:32:45;19.70;99.90
5711;DHT22;61291;52.524;13.422;2023-06-26T01:35:11;19.70;99.90
5711;DHT22;61291;52.524;13.422;2023-06-26T01:37:37;19.70;99.90
5711;DHT22;61291;52.524;13.422;2023-06-26T01:40:03;19.70;99.90
5711;DHT22;61291;52.524;13.422;2023-06-26T01:42:31;19.70;99.90
5711;DHT22;61291;52.524;13.422;2023-06-26T01:44:58;19.60;99.90
5711;DHT22;61291;52.524;13.422;2023-06-26T01:47:28;19.60;99.90
5711;DHT22;61291;52.524;13.422;2023-06-26T01:50:05;19.60;99.90
5711;DHT22;61291;52.524;13.422;2023-06-26T01:52:40;19.60;99.90
5711;DHT22;61291;52.524;13.422;2023-06-26T01:55:17;19.50;99.90
5711;DHT22;61291;52.524;13.422;2023-06-26T01:57:45;19.50;99.90
5711;DHT22;61291;52.524;13.422;2023-06-26T02:00:16;19.50;99.90
5711;DHT22;61291;52.524;13.422;2023-06-26T02:02:44;19.50;99.90
5711;DHT22;61291;52.524;13.422;2023-06-26T02:05:09;19.40;99.90
5711;DHT22;61291;52.524;13.422;2023-06-26T02:07:35;19.40;99.90
5711;DHT22;61291;52.524;13.422;2023-06-26T02:10:01;19.50;99.90
5711;DHT22;61291;52.524;13.422;2023-06-26T02:12:26;19.50;99.90
5711;DHT22;61291;52.524;13.422;2023-06-26T02:14:52;19.50;99.90
5711;DHT22;61291;52.524;13.422;2023-06-26T02:17:17;19.50;99.90
5711;DHT22;61291;52.524;13.422;2023-06-26T02:19:42;19.50;99.90
5711;DHT22;61291;52.524;13.422;2023-06-26T02:22:15;19.50;99.90
5711;DHT22;61291;52.524;13.422;2023-06-26T02:24:42;19.50;99.90
5711;DHT22;61291;52.524;13.422;2023-06-26T02:27:08;19.50;99.90
5711;DHT22;61291;52.524;13.422;2023-06-26T02:29:34;19.50;99.90
5711;DHT22;61291;52.524;13.422;2023-06-26T02:31:59;19.50;99.90
5711;DHT22;61291;52.524;13.422;2023-06-26T02:34:25;19.60;99.90
5711;DHT22;61291;52.524;13.422;2023-06-26T02:36:50;19.60;99.90
5711;DHT22;61291;52.524;13.422;2023-06-26T02:39:19;19.60;99.90
5711;DHT22;61291;52.524;13.422;2023-06-26T02:41:45;19.70;99.90
5711;DHT22;61291;52.524;13.422;2023-06-26T02:44:10;19.70;99.90
5711;DHT22;61291;52.524;13.422;2023-06-26T02:46:37;19.60;99.90
5711;DHT22;61291;52.524;13.422;2023-06-26T02:49:03;19.60;99.90
5711;DHT22;61291;52.524;13.422;2023-06-26T02:51:28;19.60;99.90
5711;DHT22;61291;52.524;13.422;2023-06-26T02:53:54;19.50;99.90
5711;DHT22;61291;52.524;13.422;2023-06-26T02:56:19;19.50;99.90
5711;DHT22;61291;52.524;13.422;2023-06-26T02:58:45;19.40;99.90
5711;DHT22;61291;52.524;13.422;2023-06-26T03:01:10;19.30;99.90
5711;DHT22;61291;52.524;13.422;2023-06-26T03:03:35;19.30;99.90
5711;DHT22;61291;52.524;13.422;2023-06-26T03:06:08;19.20;99.90
5711;DHT22;61291;52.524;13.422;2023-06-26T03:08:36;19.10;99.90
5711;DHT22;61291;52.524;13.422;2023-06-26T03:11:02;19.10;99.90
5711;DHT22;61291;52.524;13.422;2023-06-26T03:13:27;19.00;99.90
5711;DHT22;61291;52.524;13.422;2023-06-26T03:15:53;19.00;99.90
5711;DHT22;61291;52.524;13.422;2023-06-26T03:18:18;18.90;99.90
5711;DHT22;61291;52.524;13.422;2023-06-26T03:20:44;18.90;99.90
5711;DHT22;61291;52.524;13.422;2023-06-26T03:23:10;18.90;99.90
5711;DHT22;61291;52.524;13.422;2023-06-26T03:25:36;18.90;99.90
5711;DHT22;61291;52.524;13.422;2023-06-26T03:28:01;18.90;99.90
5711;DHT22;61291;52.524;13.422;2023-06-26T03:30:26;18.90;99.90
5711;DHT22;61291;52.524;13.422;2023-06-26T03:32:52;18.90;99.90
5711;DHT22;61291;52.524;13.422;2023-06-26T03:35:18;19.00;99.90
5711;DHT22;61291;52.524;13.422;2023-06-26T03:37:44;19.00;99.90
5711;DHT22;61291;52.524;13.422;2023-06-26T03:40:09;19.10;99.90
5711;DHT22;61291;52.524;13.422;2023-06-26T03:42:35;19.20;99.90
5711;DHT22;61291;52.524;13.422;2023-06-26T03:45:00;19.40;99.90
5711;DHT22;61291;52.524;13.422;2023-06-26T03:47:26;19.50;99.90
5711;DHT22;61291;52.524;13.422;2023-06-26T03:49:51;19.80;99.90
5711;DHT22;61291;52.524;13.422;2023-06-26T03:52:17;20.10;99.90
5711;DHT22;61291;52.524;13.422;2023-06-26T03:54:42;20.40;99.90
5711;DHT22;61291;52.524;13.422;2023-06-26T03:57:08;20.70;99.90
5711;DHT22;61291;52.524;13.422;2023-06-26T03:59:34;21.00;99.90
5711;DHT22;61291;52.524;13.422;2023-06-26T04:01:59;21.20;99.90
5711;DHT22;61291;52.524;13.422;2023-06-26T04:04:25;21.50;99.90
5711;DHT22;61291;52.524;13.422;2023-06-26T04:06:50;21.70;99.90
5711;DHT22;61291;52.524;13.422;2023-06-26T04:09:16;21.90;99.90
5711;DHT22;61291;52.524;13.422;2023-06-26T04:11:42;22.10;99.90
5711;DHT22;61291;52.524;13.422;2023-06-26T04:14:07;22.40;99.90
5711;DHT22;61291;52.524;13.422;2023-06-26T04:16:33;22.70;99.90
5711;DHT22;61291;52.524;13.422;2023-06-26T04:18:58;23.20;99.90
5711;DHT22;61291;52.524;13.422;2023-06-26T04:21:24;24.10;99.90
5711;DHT22;61291;52.524;13.422;2023-06-26T04:23:50;25.00;99.90
5711;DHT22;61291;52.524;13.422;2023-06-26T04:26:16;25.90;99.90
5711;DHT22;61291;52.524;13.422;2023-06-26T04:28:41;26.60;99.90
5711;DHT22;61291;52.524;13.422;2023-06-26T04:31:08;26.50;99.90
5711;DHT22;61291;52.524;13.422;2023-06-26T04:33:34;26.50;99.90
5711;DHT22;61291;52.524;13.422;2023-06-26T04:36:02;26.40;99.90
5711;DHT22;61291;52.524;13.422;2023-06-26T04:38:28;26.20;99.90
5711;DHT22;61291;52.524;13.422;2023-06-26T04:40:54;26.00;99.90
5711;DHT22;61291;52.524;13.422;2023-06-26T04:43:19;25.80;99.90
5711;DHT22;61291;52.524;13.422;2023-06-26T04:45:45;25.70;99.90
5711;DHT22;61291;52.524;13.422;2023-06-26T04:48:10;25.60;99.90
5711;DHT22;61291;52.524;13.422;2023-06-26T04:50:36;25.50;99.90
5711;DHT22;61291;52.524;13.422;2023-06-26T04:53:01;25.50;99.90
5711;DHT22;61291;52.524;13.422;2023-06-26T04:55:27;25.50;99.90
5711;DHT22;61291;52.524;13.422;2023-06-26T04:57:53;25.40;99.90
5711;DHT22;61291;52.524;13.422;2023-06-26T05:00:19;25.60;99.90
5711;DHT22;61291;52.524;13.422;2023-06-26T05:02:44;25.80;99.90
5711;DHT22;61291;52.524;13.422;2023-06-26T05:05:10;26.00;99.90
5711;DHT22;61291;52.524;13.422;2023-06-26T05:07:36;26.30;99.90
5711;DHT22;61291;52.524;13.422;2023-06-26T05:10:01;26.80;99.90
5711;DHT22;61291;52.524;13.422;2023-06-26T05:12:27;27.20;99.90
5711;DHT22;61291;52.524;13.422;2023-06-26T05:14:52;27.60;99.90
5711;DHT22;61291;52.524;13.422;2023-06-26T05:17:18;27.80;99.90
5711;DHT22;61291;52.524;13.422;2023-06-26T05:19:43;28.00;99.90
5711;DHT22;61291;52.524;13.422;2023-06-26T05:22:09;28.20;99.80
5711;DHT22;61291;52.524;13.422;2023-06-26T05:24:35;28.40;99.20
5711;DHT22;61291;52.524;13.422;2023-06-26T05:27:01;28.80;98.30
5711;DHT22;61291;52.524;13.422;2023-06-26T05:29:27;29.00;97.60
5711;DHT22;61291;52.524;13.422;2023-06-26T05:31:53;29.00;96.90
5711;DHT22;61291;52.524;13.422;2023-06-26T05:34:22;28.90;96.60
5711;DHT22;61291;52.524;13.422;2023-06-26T05:36:50;28.90;95.80
5711;DHT22;61291;52.524;13.422;2023-06-26T05:39:16;29.20;95.20
5711;DHT22;61291;52.524;13.422;2023-06-26T05:41:44;29.20;94.70
5711;DHT22;61291;52.524;13.422;2023-06-26T05:44:09;29.20;94.00
5711;DHT22;61291;52.524;13.422;2023-06-26T05:46:35;29.10;93.60
5711;DHT22;61291;52.524;13.422;2023-06-26T05:49:00;28.90;93.50
5711;DHT22;61291;52.524;13.422;2023-06-26T05:51:27;29.20;93.40
5711;DHT22;61291;52.524;13.422;2023-06-26T05:53:53;30.20;92.70
5711;DHT22;61291;52.524;13.422;2023-06-26T05:56:18;31.10;91.90
5711;DHT22;61291;52.524;13.422;2023-06-26T05:58:45;32.80;90.60
5711;DHT22;61291;52.524;13.422;2023-06-26T06:01:11;34.20;87.30
5711;DHT22;61291;52.524;13.422;2023-06-26T06:03:36;35.30;83.60
5711;DHT22;61291;52.524;13.422;2023-06-26T06:06:03;36.10;80.00
5711;DHT22;61291;52.524;13.422;2023-06-26T06:08:28;36.80;77.10
5711;DHT22;61291;52.524;13.422;2023-06-26T06:10:54;37.40;74.90
5711;DHT22;61291;52.524;13.422;2023-06-26T06:13:19;38.10;71.80
5711;DHT22;61291;52.524;13.422;2023-06-26T06:15:45;38.70;68.50
5711;DHT22;61291;52.524;13.422;2023-06-26T06:18:10;39.10;67.30
5711;DHT22;61291;52.524;13.422;2023-06-26T06:20:36;39.50;64.70
5711;DHT22;61291;52.524;13.422;2023-06-26T06:23:01;40.00;62.50
5711;DHT22;61291;52.524;13.422;2023-06-26T06:25:27;40.50;60.90
5711;DHT22;61291;52.524;13.422;2023-06-26T06:27:52;40.90;59.70
5711;DHT22;61291;52.524;13.422;2023-06-26T06:30:18;41.10;58.40
5711;DHT22;61291;52.524;13.422;2023-06-26T06:32:43;41.50;57.40
5711;DHT22;61291;52.524;13.422;2023-06-26T06:35:09;41.70;56.70
5711;DHT22;61291;52.524;13.422;2023-06-26T06:37:38;41.80;56.10
5711;DHT22;61291;52.524;13.422;2023-06-26T06:40:08;42.00;55.40
5711;DHT22;61291;52.524;13.422;2023-06-26T06:42:34;41.90;53.50
5711;DHT22;61291;52.524;13.422;2023-06-26T06:45:01;42.00;53.90
5711;DHT22;61291;52.524;13.422;2023-06-26T06:47:26;42.00;53.70
5711;DHT22;61291;52.524;13.422;2023-06-26T06:49:52;41.80;53.20
5711;DHT22;61291;52.524;13.422;2023-06-26T06:52:17;41.90;52.00
5711;DHT22;61291;52.524;13.422;2023-06-26T06:54:52;42.30;52.50
5711;DHT22;61291;52.524;13.422;2023-06-26T06:57:19;42.30;52.30
5711;DHT22;61291;52.524;13.422;2023-06-26T06:59:45;42.40;52.30
5711;DHT22;61291;52.524;13.422;2023-06-26T07:02:10;42.80;52.20
5711;DHT22;61291;52.524;13.422;2023-06-26T07:04:36;42.90;51.90
5711;DHT22;61291;52.524;13.422;2023-06-26T07:07:02;43.00;51.50
5711;DHT22;61291;52.524;13.422;2023-06-26T07:09:27;43.30;51.40
5711;DHT22;61291;52.524;13.422;2023-06-26T07:11:52;43.20;51.10
5711;DHT22;61291;52.524;13.422;2023-06-26T07:14:18;43.30;50.90
5711;DHT22;61291;52.524;13.422;2023-06-26T07:16:43;43.50;50.90
5711;DHT22;61291;52.524;13.422;2023-06-26T07:19:09;43.30;50.60
5711;DHT22;61291;52.524;13.422;2023-06-26T07:21:34;43.30;50.40
5711;DHT22;61291;52.524;13.422;2023-06-26T07:24:00;43.40;50.40
5711;DHT22;61291;52.524;13.422;2023-06-26T07:26:25;43.50;49.90
5711;DHT22;61291;52.524;13.422;2023-06-26T07:28:51;43.50;49.80
5711;DHT22;61291;52.524;13.422;2023-06-26T07:31:16;43.50;49.60
5711;DHT22;61291;52.524;13.422;2023-06-26T07:33:42;43.30;49.50
5711;DHT22;61291;52.524;13.422;2023-06-26T07:36:07;43.30;49.60
5711;DHT22;61291;52.524;13.422;2023-06-26T07:38:33;42.90;49.80
5711;DHT22;61291;52.524;13.422;2023-06-26T07:40:58;43.00;49.70
5711;DHT22;61291;52.524;13.422;2023-06-26T07:43:24;42.60;49.90
5711;DHT22;61291;52.524;13.422;2023-06-26T07:45:49;42.50;50.00
5711;DHT22;61291;52.524;13.422;2023-06-26T07:48:16;42.50;50.30
5711;DHT22;61291;52.524;13.422;2023-06-26T07:50:42;42.40;50.20
5711;DHT22;61291;52.524;13.422;2023-06-26T07:53:07;42.30;50.10
5711;DHT22;61291;52.524;13.422;2023-06-26T07:55:33;42.30;50.20
5711;DHT22;61291;52.524;13.422;2023-06-26T07:57:59;41.80;50.40
5711;DHT22;61291;52.524;13.422;2023-06-26T08:00:24;41.40;50.90
5711;DHT22;61291;52.524;13.422;2023-06-26T08:02:50;41.30;50.80
5711;DHT22;61291;52.524;13.422;2023-06-26T08:05:15;41.10;51.30
5711;DHT22;61291;52.524;13.422;2023-06-26T08:07:41;40.70;51.00
5711;DHT22;61291;52.524;13.422;2023-06-26T08:10:06;40.50;51.20
5711;DHT22;61291;52.524;13.422;2023-06-26T08:12:32;40.10;51.20
5711;DHT22;61291;52.524;13.422;2023-06-26T08:14:57;39.70;51.50
5711;DHT22;61291;52.524;13.422;2023-06-26T08:17:23;39.40;51.70
5711;DHT22;61291;52.524;13.422;2023-06-26T08:19:48;39.10;51.70
5711;DHT22;61291;52.524;13.422;2023-06-26T08:22:14;38.60;52.60
5711;DHT22;61291;52.524;13.422;2023-06-26T08:24:39;37.30;52.30
5711;DHT22;61291;52.524;13.422;2023-06-26T08:27:05;36.00;53.00
5711;DHT22;61291;52.524;13.422;2023-06-26T08:29:32;34.80;53.80
5711;DHT22;61291;52.524;13.422;2023-06-26T08:31:58;34.00;55.00
5711;DHT22;61291;52.524;13.422;2023-06-26T08:34:24;33.30;55.60
5711;DHT22;61291;52.524;13.422;2023-06-26T08:36:49;32.70;56.00
5711;DHT22;61291;52.524;13.422;2023-06-26T08:39:15;32.30;56.70
5711;DHT22;61291;52.524;13.422;2023-06-26T08:41:40;31.90;56.80
5711;DHT22;61291;52.524;13.422;2023-06-26T08:44:07;31.60;56.90
5711;DHT22;61291;52.524;13.422;2023-06-26T08:46:33;31.40;57.10
5711;DHT22;61291;52.524;13.422;2023-06-26T08:49:11;31.20;57.30
5711;DHT22;61291;52.524;13.422;2023-06-26T08:51:41;31.00;58.00
5711;DHT22;61291;52.524;13.422;2023-06-26T08:54:11;30.80;57.90
5711;DHT22;61291;52.524;13.422;2023-06-26T08:56:41;30.60;57.90
5711;DHT22;61291;52.524;13.422;2023-06-26T08:59:08;30.50;58.10
5711;DHT22;61291;52.524;13.422;2023-06-26T09:01:36;30.40;58.20
5711;DHT22;61291;52.524;13.422;2023-06-26T09:04:02;30.30;58.00
5711;DHT22;61291;52.524;13.422;2023-06-26T09:06:27;30.20;58.40
5711;DHT22;61291;52.524;13.422;2023-06-26T09:08:53;30.20;58.60
5711;DHT22;61291;52.524;13.422;2023-06-26T09:11:18;30.20;58.60
5711;DHT22;61291;52.524;13.422;2023-06-26T09:13:44;30.20;58.20
5711;DHT22;61291;52.524;13.422;2023-06-26T09:16:12;30.20;58.00
5711;DHT22;61291;52.524;13.422;2023-06-26T09:18:40;30.10;57.80
5711;DHT22;61291;52.524;13.422;2023-06-26T09:21:08;30.10;57.90
5711;DHT22;61291;52.524;13.422;2023-06-26T09:23:34;30.20;58.30
5711;DHT22;61291;52.524;13.422;2023-06-26T09:26:02;30.20;58.30
5711;DHT22;61291;52.524;13.422;2023-06-26T09:28:30;30.20;58.30
5711;DHT22;61291;52.524;13.422;2023-06-26T09:31:04;30.30;58.20
5711;DHT22;61291;52.524;13.422;2023-06-26T09:33:34;30.40;57.90
5711;DHT22;61291;52.524;13.422;2023-06-26T09:36:01;30.30;57.80
5711;DHT22;61291;52.524;13.422;2023-06-26T09:38:26;30.30;58.00
5711;DHT22;61291;52.524;13.422;2023-06-26T09:40:52;30.30;58.10
5711;DHT22;61291;52.524;13.422;2023-06-26T09:43:18;30.20;58.20
5711;DHT22;61291;52.524;13.422;2023-06-26T09:45:44;30.20;58.40
5711;DHT22;61291;52.524;13.422;2023-06-26T09:48:10;30.20;58.50
5711;DHT22;61291;52.524;13.422;2023-06-26T09:50:41;30.30;58.70
5711;DHT22;61291;52.524;13.422;2023-06-26T09:53:08;30.30;58.50
5711;DHT22;61291;52.524;13.422;2023-06-26T09:55:35;30.40;58.50
5711;DHT22;61291;52.524;13.422;2023-06-26T09:58:04;30.40;58.50
5711;DHT22;61291;52.524;13.422;2023-06-26T10:00:32;30.40;58.70
5711;DHT22;61291;52.524;13.422;2023-06-26T10:03:01;30.40;58.80
5711;DHT22;61291;52.524;13.422;2023-06-26T10:05:27;30.40;58.90
5711;DHT22;61291;52.524;13.422;2023-06-26T10:07:54;30.40;58.80
5711;DHT22;61291;52.524;13.422;2023-06-26T10:10:21;30.40;59.10
5711;DHT22;61291;52.524;13.422;2023-06-26T10:12:49;30.50;59.20
5711;DHT22;61291;52.524;13.422;2023-06-26T10:15:15;30.50;59.20
5711;DHT22;61291;52.524;13.422;2023-06-26T10:17:43;30.50;59.20
5711;DHT22;61291;52.524;13.422;2023-06-26T10:20:09;30.50;59.10
5711;DHT22;61291;52.524;13.422;2023-06-26T10:22:39;30.60;58.80
5711;DHT22;61291;52.524;13.422;2023-06-26T10:25:07;30.50;59.10
5711;DHT22;61291;52.524;13.422;2023-06-26T10:27:37;30.60;59.30
5711;DHT22;61291;52.524;13.422;2023-06-26T10:30:06;30.70;59.20
5711;DHT22;61291;52.524;13.422;2023-06-26T10:32:34;30.70;59.20
5711;DHT22;61291;52.524;13.422;2023-06-26T10:35:00;30.70;59.20
5711;DHT22;61291;52.524;13.422;2023-06-26T10:37:44;30.80;58.70
5711;DHT22;61291;52.524;13.422;2023-06-26T10:40:11;30.90;58.20
5711;DHT22;61291;52.524;13.422;2023-06-26T10:42:38;30.80;57.80
5711;DHT22;61291;52.524;13.422;2023-06-26T10:45:11;30.70;57.90
5711;DHT22;61291;52.524;13.422;2023-06-26T10:47:40;30.70;58.10
5711;DHT22;61291;52.524;13.422;2023-06-26T10:50:27;30.70;58.30
5711;DHT22;61291;52.524;13.422;2023-06-26T10:53:22;30.80;58.70
5711;DHT22;61291;52.524;13.422;2023-06-26T10:56:01;30.90;58.60
5711;DHT22;61291;52.524;13.422;2023-06-26T10:58:34;30.80;58.00
5711;DHT22;61291;52.524;13.422;2023-06-26T11:03:42;31.00;58.50
5711;DHT22;61291;52.524;13.422;2023-06-26T11:06:13;31.10;58.30
5711;DHT22;61291;52.524;13.422;2023-06-26T11:11:14;31.50;58.20
5711;DHT22;61291;52.524;13.422;2023-06-26T11:13:43;31.70;57.80
5711;DHT22;61291;52.524;13.422;2023-06-26T11:16:11;32.00;57.80
5711;DHT22;61291;52.524;13.422;2023-06-26T11:18:37;32.20;57.30
5711;DHT22;61291;52.524;13.422;2023-06-26T11:21:10;32.30;57.20
5711;DHT22;61291;52.524;13.422;2023-06-26T11:23:39;32.40;57.20
5711;DHT22;61291;52.524;13.422;2023-06-26T11:26:16;32.50;57.30
5711;DHT22;61291;52.524;13.422;2023-06-26T11:28:48;32.50;56.90
5711;DHT22;61291;52.524;13.422;2023-06-26T11:31:33;32.50;56.90
5711;DHT22;61291;52.524;13.422;2023-06-26T11:34:00;32.50;56.90
5711;DHT22;61291;52.524;13.422;2023-06-26T11:36:27;32.50;57.00
5711;DHT22;61291;52.524;13.422;2023-06-26T11:39:01;32.50;56.80
5711;DHT22;61291;52.524;13.422;2023-06-26T11:41:29;32.70;57.00
5711;DHT22;61291;52.524;13.422;2023-06-26T11:43:55;32.70;57.00
5711;DHT22;61291;52.524;13.422;2023-06-26T11:46:22;32.60;56.50
5711;DHT22;61291;52.524;13.422;2023-06-26T11:48:48;32.60;56.50
5711;DHT22;61291;52.524;13.422;2023-06-26T11:51:14;32.90;56.40
5711;DHT22;61291;52.524;13.422;2023-06-26T11:53:41;33.20;56.00
5711;DHT22;61291;52.524;13.422;2023-06-26T11:56:11;33.20;56.00
5711;DHT22;61291;52.524;13.422;2023-06-26T12:01:31;33.10;55.80
5711;DHT22;61291;52.524;13.422;2023-06-26T12:03:59;33.10;56.00
5711;DHT22;61291;52.524;13.422;2023-06-26T12:06:27;32.90;56.50
5711;DHT22;61291;52.524;13.422;2023-06-26T12:08:53;32.90;55.70
5711;DHT22;61291;52.524;13.422;2023-06-26T12:11:21;32.90;55.90
5711;DHT22;61291;52.524;13.422;2023-06-26T12:13:48;33.00;55.80
5711;DHT22;61291;52.524;13.422;2023-06-26T12:16:14;33.10;55.70
5711;DHT22;61291;52.524;13.422;2023-06-26T12:18:40;32.90;55.80
5711;DHT22;61291;52.524;13.422;2023-06-26T12:21:06;33.00;56.20
5711;DHT22;61291;52.524;13.422;2023-06-26T12:23:39;33.10;56.10
5711;DHT22;61291;52.524;13.422;2023-06-26T12:26:20;33.40;55.70
5711;DHT22;61291;52.524;13.422;2023-06-26T12:28:47;33.60;55.60
5711;DHT22;61291;52.524;13.422;2023-06-26T12:31:15;33.80;55.30
5711;DHT22;61291;52.524;13.422;2023-06-26T12:33:43;33.90;54.90
5711;DHT22;61291;52.524;13.422;2023-06-26T12:36:12;33.90;54.80
5711;DHT22;61291;52.524;13.422;2023-06-26T12:38:39;33.90;54.50
5711;DHT22;61291;52.524;13.422;2023-06-26T12:41:04;33.90;54.50
5711;DHT22;61291;52.524;13.422;2023-06-26T12:43:30;33.70;54.20
5711;DHT22;61291;52.524;13.422;2023-06-26T12:45:55;33.70;54.20
5711;DHT22;61291;52.524;13.422;2023-06-26T12:48:22;33.70;54.40
5711;DHT22;61291;52.524;13.422;2023-06-26T12:50:47;33.80;54.80
5711;DHT22;61291;52.524;13.422;2023-06-26T12:53:13;33.90;54.70
5711;DHT22;61291;52.524;13.422;2023-06-26T12:55:39;33.80;54.70
5711;DHT22;61291;52.524;13.422;2023-06-26T12:58:04;33.80;54.80
5711;DHT22;61291;52.524;13.422;2023-06-26T13:00:30;33.90;54.90
5711;DHT22;61291;52.524;13.422;2023-06-26T13:02:57;33.90;55.00
5711;DHT22;61291;52.524;13.422;2023-06-26T13:05:23;34.00;54.80
5711;DHT22;61291;52.524;13.422;2023-06-26T13:07:49;34.10;54.40
5711;DHT22;61291;52.524;13.422;2023-06-26T13:10:15;34.20;54.30
5711;DHT22;61291;52.524;13.422;2023-06-26T13:12:40;34.40;54.30
5711;DHT22;61291;52.524;13.422;2023-06-26T13:15:06;34.70;54.10
5711;DHT22;61291;52.524;13.422;2023-06-26T13:17:32;34.90;54.00
5711;DHT22;61291;52.524;13.422;2023-06-26T13:19:57;35.10;53.90
5711;DHT22;61291;52.524;13.422;2023-06-26T13:22:23;35.10;53.80
5711;DHT22;61291;52.524;13.422;2023-06-26T13:24:49;35.00;53.80
5711;DHT22;61291;52.524;13.422;2023-06-26T13:27:14;34.80;53.70
5711;DHT22;61291;52.524;13.422;2023-06-26T13:29:41;34.60;54.00
5711;DHT22;61291;52.524;13.422;2023-06-26T13:32:07;34.30;54.30
5711;DHT22;61291;52.524;13.422;2023-06-26T13:34:33;33.90;54.50
5711;DHT22;61291;52.524;13.422;2023-06-26T13:36:58;33.60;54.90
5711;DHT22;61291;52.524;13.422;2023-06-26T13:39:25;33.30;55.20
5711;DHT22;61291;52.524;13.422;2023-06-26T13:41:51;32.90;55.40
5711;DHT22;61291;52.524;13.422;2023-06-26T13:44:16;32.70;55.60
5711;DHT22;61291;52.524;13.422;2023-06-26T13:46:42;32.50;55.90
5711;DHT22;61291;52.524;13.422;2023-06-26T13:49:07;32.40;56.00
5711;DHT22;61291;52.524;13.422;2023-06-26T13:51:33;32.40;56.00
5711;DHT22;61291;52.524;13.422;2023-06-26T13:53:58;32.40;56.10
5711;DHT22;61291;52.524;13.422;2023-06-26T13:56:26;32.40;56.30
5711;DHT22;61291;52.524;13.422;2023-06-26T13:58:51;32.30;56.50
5711;DHT22;61291;52.524;13.422;2023-06-26T14:01:16;32.20;56.50
5711;DHT22;61291;52.524;13.422;2023-06-26T14:03:42;32.00;56.70
5711;DHT22;61291;52.524;13.422;2023-06-26T14:06:07;31.80;57.10
5711;DHT22;61291;52.524;13.422;2023-06-26T14:08:33;31.60;57.50
5711;DHT22;61291;52.524;13.422;2023-06-26T14:10:58;31.30;58.00
5711;DHT22;61291;52.524;13.422;2023-06-26T14:13:25;31.00;58.40
5711;DHT22;61291;52.524;13.422;2023-06-26T14:15:50;30.60;58.60
5711;DHT22;61291;52.524;13.422;2023-06-26T14:18:18;30.30;59.50
5711;DHT22;61291;52.524;13.422;2023-06-26T14:20:43;30.00;59.80
5711;DHT22;61291;52.524;13.422;2023-06-26T14:23:09;29.80;59.60
5711;DHT22;61291;52.524;13.422;2023-06-26T14:25:34;29.50;60.20
5711;DHT22;61291;52.524;13.422;2023-06-26T14:28:00;29.20;62.50
5711;DHT22;61291;52.524;13.422;2023-06-26T14:30:26;28.60;67.10
5711;DHT22;61291;52.524;13.422;2023-06-26T14:32:52;27.40;74.30
5711;DHT22;61291;52.524;13.422;2023-06-26T14:35:17;25.60;85.30
5711;DHT22;61291;52.524;13.422;2023-06-26T14:37:43;22.20;99.90
5711;DHT22;61291;52.524;13.422;2023-06-26T14:40:09;21.20;99.90
5711;DHT22;61291;52.524;13.422;2023-06-26T14:42:35;20.80;99.90
5711;DHT22;61291;52.524;13.422;2023-06-26T14:45:01;20.30;99.90
5711;DHT22;61291;52.524;13.422;2023-06-26T14:47:26;20.10;99.90
5711;DHT22;61291;52.524;13.422;2023-06-26T14:49:52;19.90;99.90
5711;DHT22;61291;52.524;13.422;2023-06-26T14:52:17;19.90;99.90
5711;DHT22;61291;52.524;13.422;2023-06-26T14:54:43;19.90;99.90
5711;DHT22;61291;52.524;13.422;2023-06-26T14:57:08;19.90;99.90
5711;DHT22;61291;52.524;13.422;2023-06-26T14:59:34;19.90;99.90
5711;DHT22;61291;52.524;13.422;2023-06-26T15:02:00;20.00;99.90
5711;DHT22;61291;52.524;13.422;2023-06-26T15:04:25;20.00;99.90
5711;DHT22;61291;52.524;13.422;2023-06-26T15:06:52;20.10;99.90
5711;DHT22;61291;52.524;13.422;2023-06-26T15:09:18;20.10;99.90
5711;DHT22;61291;52.524;13.422;2023-06-26T15:11:43;20.10;99.90
5711;DHT22;61291;52.524;13.422;2023-06-26T15:14:09;20.10;99.90
5711;DHT22;61291;52.524;13.422;2023-06-26T15:16:34;20.10;99.90
5711;DHT22;61291;52.524;13.422;2023-06-26T15:19:00;20.10;99.90
5711;DHT22;61291;52.524;13.422;2023-06-26T15:21:26;19.90;99.90
5711;DHT22;61291;52.524;13.422;2023-06-26T15:23:51;19.90;99.90
5711;DHT22;61291;52.524;13.422;2023-06-26T15:26:17;19.90;99.90
5711;DHT22;61291;52.524;13.422;2023-06-26T15:28:42;19.90;99.90
5711;DHT22;61291;52.524;13.422;2023-06-26T15:31:08;20.00;99.90
5711;DHT22;61291;52.524;13.422;2023-06-26T15:33:33;20.30;99.90
5711;DHT22;61291;52.524;13.422;2023-06-26T15:36:00;20.70;99.90